createdAt,value
2023-04-08T00:01:00.068Z,31.30
2023-04-08T00:03:29.054Z,36.42
2023-04-08T00:05:57.439Z,32.60
2023-04-08T00:08:25.984Z,38.42
2023-04-08T00:10:54.188Z,29.65
2023-04-08T00:13:24.131Z,35.38
2023-04-08T00:15:52.287Z,32.88
2023-04-08T00:18:20.952Z,36.58
2023-04-08T00:20:49.118Z,35.22
2023-04-08T00:23:18.266Z,36.88
2023-04-08T00:25:46.681Z,35.17
2023-04-08T00:28:15.617Z,39.15
2023-04-08T00:30:45.173Z,33.25
2023-04-08T00:33:13.749Z,34.30
2023-04-08T00:35:42.103Z,33.53
2023-04-08T00:38:10.985Z,37.53
2023-04-08T00:40:39.121Z,38.17
2023-04-08T00:43:07.709Z,35.72
2023-04-08T00:45:35.983Z,40.42
2023-04-08T00:48:06.785Z,34.00
2023-04-08T00:50:35.087Z,32.85
2023-04-08T00:53:03.597Z,35.15
2023-04-08T00:55:31.976Z,38.35
2023-04-08T00:58:00.488Z,23.58
2023-04-08T01:00:29.681Z,29.85
2023-04-08T01:03:07.363Z,28.77
2023-04-08T01:05:41.663Z,24.25
2023-04-08T01:08:11.896Z,22.45
2023-04-08T01:10:43.017Z,21.85
2023-04-08T01:13:13.715Z,28.02
2023-04-08T01:15:44.139Z,20.33
2023-04-08T01:18:15.735Z,18.73
2023-04-08T01:20:44.473Z,19.88
2023-04-08T01:23:17.703Z,23.52
2023-04-08T01:25:49.245Z,21.80
2023-04-08T01:28:19.291Z,21.45
2023-04-08T01:30:48.067Z,22.33
2023-04-08T01:33:18.888Z,22.55
2023-04-08T01:35:47.637Z,24.35
2023-04-08T01:38:18.520Z,27.40
2023-04-08T01:40:49.720Z,25.55
2023-04-08T01:43:19.328Z,25.67
2023-04-08T01:45:48.770Z,29.15
2023-04-08T01:48:17.470Z,28.92
2023-04-08T01:50:46.547Z,30.83
2023-04-08T01:53:15.637Z,32.45
2023-04-08T01:55:44.383Z,30.25
2023-04-08T01:58:19.679Z,29.65
2023-04-08T02:00:48.146Z,28.58
2023-04-08T02:03:19.276Z,27.08
2023-04-08T02:05:47.687Z,27.75
2023-04-08T02:08:16.546Z,26.77
2023-04-08T02:10:44.674Z,32.17
2023-04-08T02:13:14.578Z,27.35
2023-04-08T02:15:48.585Z,28.92
2023-04-08T02:18:18.599Z,29.58
2023-04-08T02:20:55.667Z,28.10
2023-04-08T02:23:26.400Z,28.13
2023-04-08T02:25:55.855Z,28.23
2023-04-08T02:28:27.621Z,31.85
2023-04-08T02:30:56.173Z,28.25
2023-04-08T02:33:24.788Z,30.05
2023-04-08T02:35:56.210Z,29.70
2023-04-08T02:38:27.660Z,33.05
2023-04-08T02:40:55.920Z,32.67
2023-04-08T02:43:29.918Z,32.22
2023-04-08T02:45:58.392Z,30.50
2023-04-08T02:48:26.867Z,29.85
2023-04-08T02:50:55.168Z,29.55
2023-04-08T02:53:23.859Z,30.85
2023-04-08T02:55:52.315Z,29.13
2023-04-08T02:58:22.198Z,29.73
2023-04-08T03:00:51.877Z,37.35
2023-04-08T03:03:20.381Z,32.38
2023-04-08T03:05:48.628Z,32.03
2023-04-08T03:08:17.263Z,30.40
2023-04-08T03:10:45.751Z,33.53
2023-04-08T03:13:14.258Z,32.03
2023-04-08T03:15:42.571Z,33.35
2023-04-08T03:18:12.708Z,35.17
2023-04-08T03:20:40.828Z,34.65
2023-04-08T03:23:09.370Z,36.55
2023-04-08T03:25:37.530Z,36.35
2023-04-08T03:28:06.267Z,37.70
2023-04-08T03:30:34.861Z,38.38
2023-04-08T03:33:07.373Z,38.05
2023-04-08T03:35:37.784Z,36.08
2023-04-08T03:38:06.337Z,37.70
2023-04-08T03:40:34.744Z,36.58
2023-04-08T03:43:03.383Z,39.55
2023-04-08T03:45:31.705Z,39.88
2023-04-08T03:48:00.293Z,36.20
2023-04-08T03:50:28.522Z,40.70
2023-04-08T03:52:58.371Z,37.55
2023-04-08T03:55:26.666Z,35.28
2023-04-08T03:57:55.194Z,33.20
2023-04-08T04:00:23.420Z,32.25
2023-04-08T04:02:52.107Z,35.22
2023-04-08T04:05:20.642Z,28.10
2023-04-08T04:07:49.275Z,33.03
2023-04-08T04:10:18.995Z,37.08
2023-04-08T04:12:47.849Z,41.72
2023-04-08T04:15:16.219Z,35.92
2023-04-08T04:17:44.731Z,40.13
2023-04-08T04:20:13.762Z,27.52
2023-04-08T04:22:42.385Z,30.33
2023-04-08T04:25:11.261Z,28.45
2023-04-08T04:27:41.094Z,29.98
2023-04-08T04:30:10.653Z,47.40
2023-04-08T04:32:39.306Z,30.40
2023-04-08T04:35:07.943Z,32.10
2023-04-08T04:37:36.582Z,33.17
2023-04-08T04:40:05.195Z,33.50
2023-04-08T04:42:34.041Z,32.40
2023-04-08T04:45:04.349Z,27.92
2023-04-08T04:47:33.172Z,31.73
2023-04-08T04:50:01.486Z,27.40
2023-04-08T04:52:30.002Z,29.08
2023-04-08T04:54:58.951Z,30.30
2023-04-08T04:57:27.502Z,31.90
2023-04-08T04:59:55.728Z,27.55
2023-04-08T05:02:25.676Z,27.25
2023-04-08T05:04:55.824Z,31.42
2023-04-08T05:07:24.591Z,31.42
2023-04-08T05:09:52.776Z,26.13
2023-04-08T05:12:22.027Z,25.52
2023-04-08T05:14:50.397Z,27.80
2023-04-08T05:17:18.923Z,31.20
2023-04-08T05:19:48.552Z,28.38
2023-04-08T05:22:17.196Z,25.55
2023-04-08T05:24:45.498Z,26.65
2023-04-08T05:27:14.106Z,26.00
2023-04-08T05:29:42.577Z,29.92
2023-04-08T05:32:11.315Z,26.58
2023-04-08T05:34:39.556Z,29.67
2023-04-08T05:37:09.603Z,26.23
2023-04-08T05:39:37.834Z,30.42
2023-04-08T05:42:06.370Z,26.50
2023-04-08T05:44:34.686Z,23.88
2023-04-08T05:47:03.415Z,23.58
2023-04-08T05:49:31.573Z,24.48
2023-04-08T05:52:00.066Z,23.90
2023-04-08T05:54:29.775Z,23.90
2023-04-08T05:56:58.305Z,27.30
2023-04-08T05:59:26.502Z,24.15
2023-04-08T06:01:57.196Z,27.75
2023-04-08T06:04:25.855Z,23.60
2023-04-08T06:06:54.489Z,26.05
2023-04-08T06:09:22.721Z,22.58
2023-04-08T06:11:52.647Z,23.15
2023-04-08T06:14:21.610Z,22.67
2023-04-08T06:16:50.084Z,24.00
2023-04-08T06:19:18.442Z,19.77
2023-04-08T06:21:47.472Z,24.17
2023-04-08T06:24:15.689Z,20.88
2023-04-08T06:26:44.411Z,21.35
2023-04-08T06:29:14.143Z,20.08
2023-04-08T06:31:42.938Z,21.98
2023-04-08T06:34:11.388Z,21.73
2023-04-08T06:36:40.008Z,22.23
2023-04-08T06:39:08.486Z,20.27
2023-04-08T06:41:36.906Z,20.60
2023-04-08T06:44:05.382Z,21.80
2023-04-08T06:46:35.424Z,22.75
2023-04-08T06:49:04.676Z,25.75
2023-04-08T06:54:01.525Z,20.23
2023-04-08T06:56:30.170Z,15.55
2023-04-08T06:58:58.483Z,17.00
2023-04-08T07:01:26.994Z,15.98
2023-04-08T07:03:56.942Z,15.45
2023-04-08T07:06:25.614Z,17.77
2023-04-08T07:08:56.360Z,15.30
2023-04-08T07:11:25.045Z,15.98
2023-04-08T07:13:53.275Z,15.57
2023-04-08T07:16:21.822Z,20.92
2023-04-08T07:18:50.313Z,20.88
2023-04-08T07:21:20.523Z,13.70
2023-04-08T07:23:48.994Z,19.58
2023-04-08T07:26:17.681Z,14.77
2023-04-08T07:28:45.988Z,14.50
2023-04-08T07:31:18.199Z,15.32
2023-04-08T07:33:46.958Z,16.92
2023-04-08T07:36:18.433Z,15.63
2023-04-08T07:38:48.511Z,14.25
2023-04-08T07:41:17.416Z,15.80
2023-04-08T07:43:46.173Z,18.08
2023-04-08T07:46:15.064Z,17.75
2023-04-08T07:48:43.277Z,16.27
2023-04-08T07:51:11.944Z,16.27
2023-04-08T07:53:40.832Z,12.88
2023-04-08T07:56:14.955Z,16.10
2023-04-08T07:58:43.647Z,12.93
2023-04-08T08:01:20.169Z,18.13
2023-04-08T08:03:49.041Z,13.48
2023-04-08T08:06:17.935Z,13.63
2023-04-08T08:08:46.369Z,16.70
2023-04-08T08:11:16.354Z,15.00
2023-04-08T08:13:44.552Z,11.25
2023-04-08T08:16:13.189Z,10.93
2023-04-08T08:18:42.106Z,12.38
2023-04-08T08:21:10.918Z,11.02
2023-04-08T08:23:39.384Z,13.48
2023-04-08T08:26:10.190Z,11.40
2023-04-08T08:28:40.405Z,9.48
2023-04-08T08:31:09.037Z,11.77
2023-04-08T08:33:37.395Z,12.82
2023-04-08T08:36:07.158Z,15.68
2023-04-08T08:38:35.524Z,13.88
2023-04-08T08:41:04.855Z,11.52
2023-04-08T08:43:34.736Z,11.65
2023-04-08T08:46:04.700Z,11.68
2023-04-08T08:48:34.230Z,12.57
2023-04-08T08:51:02.844Z,11.13
2023-04-08T08:53:35.067Z,13.77
2023-04-08T08:56:17.994Z,14.35
2023-04-08T08:58:47.867Z,14.90
2023-04-08T09:01:38.261Z,11.60
2023-04-08T09:04:12.311Z,14.27
2023-04-08T09:06:41.466Z,11.63
2023-04-08T09:09:12.986Z,11.85
2023-04-08T09:11:43.128Z,13.75
2023-04-08T09:14:21.630Z,12.45
2023-04-08T09:16:52.157Z,12.65
2023-04-08T09:19:20.835Z,12.95
2023-04-08T09:22:06.604Z,14.82
2023-04-08T09:24:35.320Z,12.57
2023-04-08T09:27:04.353Z,16.17
2023-04-08T09:29:35.256Z,11.23
2023-04-08T09:32:07.842Z,9.88
2023-04-08T09:34:36.838Z,13.57
2023-04-08T09:37:05.403Z,11.10
2023-04-08T09:39:33.782Z,11.25
2023-04-08T09:42:03.586Z,10.10
2023-04-08T09:44:32.921Z,10.13
2023-04-08T09:47:06.440Z,32.85
2023-04-08T09:49:39.918Z,10.25
2023-04-08T09:52:09.724Z,9.30
2023-04-08T09:54:44.020Z,40.40
2023-04-08T09:57:19.065Z,16.65
2023-04-08T09:59:51.351Z,8.90
2023-04-08T10:02:26.140Z,13.82
2023-04-08T10:04:56.507Z,14.52
2023-04-08T10:07:25.124Z,14.27
2023-04-08T10:09:53.655Z,9.70
2023-04-08T10:12:22.366Z,11.20
2023-04-08T10:15:24.559Z,11.40
2023-04-08T10:17:53.501Z,12.68
2023-04-08T10:20:46.003Z,15.48
2023-04-08T10:23:15.475Z,15.07
2023-04-08T10:25:45.201Z,10.38
2023-04-08T10:28:27.379Z,10.60
2023-04-08T10:30:57.490Z,10.45
2023-04-08T10:33:34.764Z,12.73
2023-04-08T10:36:12.224Z,11.98
2023-04-08T10:38:42.448Z,11.35
2023-04-08T10:41:12.008Z,11.68
2023-04-08T10:43:40.753Z,12.75
2023-04-08T10:46:11.713Z,12.63
2023-04-08T10:48:40.516Z,11.50
2023-04-08T10:51:10.188Z,7.72
2023-04-08T10:53:40.433Z,7.50
2023-04-08T10:56:11.057Z,7.65
2023-04-08T10:58:49.191Z,9.13
2023-04-08T11:01:17.732Z,7.68
2023-04-08T11:03:46.401Z,8.32
2023-04-08T11:06:16.513Z,8.23
2023-04-08T11:08:45.454Z,12.38
2023-04-08T11:11:13.624Z,9.40
2023-04-08T11:13:52.054Z,14.93
2023-04-08T11:16:21.367Z,15.00
2023-04-08T11:18:50.405Z,15.52
2023-04-08T11:21:20.350Z,14.90
2023-04-08T11:23:51.975Z,15.23
2023-04-08T11:28:52.048Z,18.70
2023-04-08T11:31:22.738Z,20.63
2023-04-08T11:33:54.979Z,17.08
2023-04-08T11:36:24.518Z,16.98
2023-04-08T11:38:55.469Z,14.82
2023-04-08T11:41:23.928Z,13.25
2023-04-08T11:43:56.519Z,13.32
2023-04-08T11:46:25.585Z,17.33
2023-04-08T11:49:04.840Z,13.90
2023-04-08T11:51:35.617Z,16.27
2023-04-08T11:54:06.660Z,18.00
2023-04-08T11:56:46.988Z,16.20
2023-04-08T11:59:15.653Z,20.63
2023-04-08T12:01:43.871Z,17.15
2023-04-08T12:04:12.661Z,16.98
2023-04-08T12:06:43.714Z,19.88
2023-04-08T12:09:12.899Z,19.65
2023-04-08T12:11:41.331Z,15.48
2023-04-08T12:14:09.862Z,15.98
2023-04-08T12:16:38.150Z,20.77
2023-04-08T12:19:07.252Z,21.83
2023-04-08T12:21:35.420Z,26.15
2023-04-08T12:24:05.428Z,19.77
2023-04-08T12:26:34.813Z,25.65
2023-04-08T12:29:03.300Z,17.90
2023-04-08T12:31:32.098Z,15.43
2023-04-08T12:34:00.654Z,18.55
2023-04-08T12:36:28.968Z,16.17
2023-04-08T12:38:57.691Z,18.00
2023-04-08T12:41:27.336Z,17.75
2023-04-08T12:43:55.959Z,17.70
2023-04-08T12:46:24.147Z,16.15
2023-04-08T12:49:03.465Z,24.15
2023-04-08T12:51:32.673Z,18.05
2023-04-08T12:54:02.095Z,22.30
2023-04-08T12:56:31.700Z,27.10
2023-04-08T12:59:01.192Z,26.73
2023-04-08T13:01:31.148Z,28.70
2023-04-08T13:04:00.241Z,18.00
2023-04-08T13:06:28.804Z,16.02
2023-04-08T13:08:57.453Z,31.00
2023-04-08T13:11:25.986Z,20.60
2023-04-08T13:13:56.038Z,24.35
2023-04-08T13:16:24.747Z,21.10
2023-04-08T13:18:53.644Z,25.60
2023-04-08T13:21:21.942Z,22.13
2023-04-08T13:23:50.345Z,30.98
2023-04-08T13:26:18.591Z,23.63
2023-04-08T13:28:56.612Z,24.00
2023-04-08T13:31:27.735Z,19.73
2023-04-08T13:33:58.188Z,21.92
2023-04-08T13:36:28.880Z,27.27
2023-04-08T13:38:57.849Z,49.92
2023-04-08T13:41:28.295Z,40.78
2023-04-08T13:43:57.584Z,31.40
2023-04-08T13:46:28.668Z,31.38
2023-04-08T13:48:57.656Z,24.30
2023-04-08T13:51:27.895Z,20.02
2023-04-08T13:53:57.223Z,22.40
2023-04-08T13:56:25.637Z,19.17
2023-04-08T13:58:57.357Z,18.35
2023-04-08T14:01:27.514Z,20.02
2023-04-08T14:03:56.486Z,16.05
2023-04-08T14:06:24.766Z,18.58
2023-04-08T14:08:53.421Z,21.33
2023-04-08T14:11:22.467Z,21.40
2023-04-08T14:13:50.951Z,20.38
2023-04-08T14:16:19.827Z,28.13
2023-04-08T14:18:50.045Z,20.17
2023-04-08T14:21:18.877Z,21.27
2023-04-08T14:23:48.264Z,22.52
2023-04-08T14:26:16.720Z,25.50
2023-04-08T14:28:45.216Z,21.95
2023-04-08T14:31:13.781Z,28.45
2023-04-08T14:33:42.420Z,33.92
2023-04-08T14:36:14.222Z,29.20
2023-04-08T14:38:42.810Z,28.35
2023-04-08T14:41:11.063Z,26.83
2023-04-08T14:43:39.592Z,27.42
2023-04-08T14:46:08.013Z,24.58
2023-04-08T14:48:36.639Z,21.40
2023-04-08T14:51:05.208Z,23.05
2023-04-08T14:53:35.576Z,25.05
2023-04-08T14:56:04.241Z,26.98
2023-04-08T14:58:33.148Z,25.00
2023-04-08T15:01:01.558Z,24.13
2023-04-08T15:03:30.562Z,25.50
2023-04-08T15:05:59.779Z,31.05
2023-04-08T15:08:28.445Z,23.33
2023-04-08T15:10:59.669Z,30.35
2023-04-08T15:13:28.294Z,26.23
2023-04-08T15:15:56.829Z,29.55
2023-04-08T15:18:25.568Z,39.63
2023-04-08T15:20:53.843Z,50.95
2023-04-08T15:23:23.382Z,30.95
2023-04-08T15:25:51.986Z,35.35
2023-04-08T15:28:21.975Z,33.35
2023-04-08T15:30:50.574Z,34.25
2023-04-08T15:33:19.359Z,32.70
2023-04-08T15:35:48.650Z,42.60
2023-04-08T15:38:17.619Z,39.92
2023-04-08T15:40:47.970Z,35.47
2023-04-08T15:43:16.876Z,36.78
2023-04-08T15:45:46.817Z,30.30
2023-04-08T15:48:15.512Z,32.58
2023-04-08T15:50:43.766Z,36.55
2023-04-08T15:53:12.339Z,37.00
2023-04-08T15:55:41.060Z,34.70
2023-04-08T15:58:09.804Z,32.38
2023-04-08T16:00:38.028Z,35.60
2023-04-08T16:03:11.977Z,54.47
2023-04-08T16:05:41.752Z,30.27
2023-04-08T16:08:10.401Z,37.85
2023-04-08T16:10:38.572Z,41.20
2023-04-08T16:13:07.729Z,38.20
2023-04-08T16:15:36.363Z,40.67
2023-04-08T16:18:06.476Z,42.65
2023-04-08T16:20:38.440Z,35.20
2023-04-08T16:23:06.983Z,33.40
2023-04-08T16:25:35.105Z,36.38
2023-04-08T16:28:03.905Z,36.20
2023-04-08T16:30:32.284Z,35.58
2023-04-08T16:33:01.052Z,36.75
2023-04-08T16:35:29.333Z,38.63
2023-04-08T16:37:59.707Z,39.72
2023-04-08T16:40:27.990Z,38.85
2023-04-08T16:42:56.945Z,36.17
2023-04-08T16:45:25.419Z,37.25
2023-04-08T16:47:54.225Z,46.88
2023-04-08T16:50:22.591Z,43.63
2023-04-08T16:52:51.190Z,54.72
2023-04-08T16:55:21.040Z,46.60
2023-04-08T16:57:49.773Z,44.78
2023-04-08T17:00:21.040Z,54.05
2023-04-08T17:02:50.353Z,52.40
2023-04-08T17:05:18.958Z,52.95
2023-04-08T17:07:47.587Z,39.75
2023-04-08T17:10:15.988Z,34.55
2023-04-08T17:12:46.186Z,36.83
2023-04-08T17:15:14.416Z,37.53
2023-04-08T17:17:43.126Z,36.75
2023-04-08T17:20:12.424Z,39.72
2023-04-08T17:22:41.126Z,55.58
2023-04-08T17:25:10.045Z,43.25
2023-04-08T17:27:38.575Z,35.00
2023-04-08T17:30:11.318Z,41.42
2023-04-08T17:32:40.289Z,43.35
2023-04-08T17:35:09.361Z,33.78
2023-04-08T17:37:38.017Z,38.10
2023-04-08T17:40:07.679Z,35.33
2023-04-08T17:42:36.436Z,34.88
2023-04-08T17:45:05.681Z,40.88
2023-04-08T17:47:35.723Z,39.92
2023-04-08T17:50:03.970Z,37.38
2023-04-08T17:52:32.536Z,41.90
2023-04-08T17:55:00.952Z,35.63
2023-04-08T17:57:29.704Z,39.00
2023-04-08T17:59:57.980Z,49.20
2023-04-08T18:02:27.682Z,41.92
2023-04-08T18:04:58.651Z,36.50
2023-04-08T18:07:27.509Z,33.08
2023-04-08T18:09:56.627Z,35.00
2023-04-08T18:12:26.316Z,34.95
2023-04-08T18:14:54.641Z,37.35
2023-04-08T18:17:23.209Z,38.00
2023-04-08T18:19:51.451Z,34.30
2023-04-08T18:22:22.609Z,37.10
2023-04-08T18:24:51.072Z,35.60
2023-04-08T18:27:19.660Z,38.13
2023-04-08T18:29:48.152Z,36.92
2023-04-08T18:32:16.804Z,39.35
2023-04-08T18:34:45.035Z,45.80
2023-04-08T18:37:17.036Z,53.75
2023-04-08T18:42:15.071Z,39.72
2023-04-08T18:44:43.358Z,41.03
2023-04-08T18:47:12.146Z,40.78
2023-04-08T18:49:40.320Z,37.78
2023-04-08T18:52:09.437Z,39.75
2023-04-08T18:54:37.681Z,48.05
2023-04-08T18:57:08.043Z,47.53
2023-04-08T18:59:37.218Z,51.47
2023-04-08T19:02:05.943Z,47.40
2023-04-08T19:04:34.318Z,42.50
2023-04-08T19:07:03.104Z,46.97
2023-04-08T19:09:31.993Z,47.75
2023-04-08T19:12:00.686Z,50.08
2023-04-08T19:14:30.390Z,52.40
2023-04-08T19:16:58.851Z,47.60
2023-04-08T19:19:27.075Z,45.53
2023-04-08T19:21:55.571Z,40.05
2023-04-08T19:24:23.852Z,42.88
2023-04-08T19:26:53.202Z,43.90
2023-04-08T19:29:23.424Z,45.50
2023-04-08T19:31:53.440Z,46.33
2023-04-08T19:34:21.583Z,41.20
2023-04-08T19:36:50.050Z,47.88
2023-04-08T19:39:18.591Z,48.72
2023-04-08T19:41:47.168Z,43.65
2023-04-08T19:44:15.730Z,53.10
2023-04-08T19:46:44.542Z,46.15
2023-04-08T19:49:14.143Z,47.83
2023-04-08T19:51:42.641Z,45.22
2023-04-08T19:54:10.827Z,47.58
2023-04-08T19:56:39.608Z,42.53
2023-04-08T19:59:07.887Z,41.78
2023-04-08T20:01:36.527Z,41.53
2023-04-08T20:04:05.013Z,40.08
2023-04-08T20:06:35.431Z,43.97
2023-04-08T20:09:05.759Z,43.13
2023-04-08T20:11:34.572Z,46.22
2023-04-08T20:14:03.516Z,52.42
2023-04-08T20:16:32.134Z,51.88
2023-04-08T20:19:00.455Z,44.00
2023-04-08T20:21:28.987Z,47.55
2023-04-08T20:23:58.615Z,44.55
2023-04-08T20:26:27.199Z,43.08
2023-04-08T20:28:58.491Z,43.13
2023-04-08T20:31:28.114Z,45.70
2023-04-08T20:33:56.513Z,53.63
2023-04-08T20:36:25.946Z,45.15
2023-04-08T20:38:55.034Z,42.63
2023-04-08T20:41:26.057Z,45.72
2023-04-08T20:43:55.177Z,43.10
2023-04-08T20:46:24.610Z,46.00
2023-04-08T20:48:53.179Z,52.47
2023-04-08T20:51:22.170Z,57.15
2023-04-08T20:53:50.779Z,55.92
2023-04-08T20:56:19.270Z,54.78
2023-04-08T20:58:48.796Z,60.95
2023-04-08T21:01:17.310Z,55.40
2023-04-08T21:03:45.731Z,53.88
2023-04-08T21:06:18.153Z,67.47
2023-04-08T21:08:46.857Z,52.35
2023-04-08T21:11:15.750Z,57.05
2023-04-08T21:13:45.949Z,52.05
2023-04-08T21:16:17.428Z,55.53
2023-04-08T21:18:45.675Z,52.17
2023-04-08T21:21:14.260Z,50.78
2023-04-08T21:23:42.449Z,43.60
2023-04-08T21:26:14.671Z,50.10
2023-04-08T21:28:44.078Z,51.53
2023-04-08T21:31:13.244Z,46.70
2023-04-08T21:33:42.759Z,39.53
2023-04-08T21:36:11.334Z,43.58
2023-04-08T21:38:39.592Z,48.40
2023-04-08T21:41:08.112Z,54.75
2023-04-08T21:43:36.365Z,48.83
2023-04-08T21:46:05.172Z,47.55
2023-04-08T21:48:33.403Z,54.10
2023-04-08T21:51:03.371Z,49.28
2023-04-08T21:53:31.615Z,45.42
2023-04-08T21:56:00.156Z,49.67
2023-04-08T21:58:29.085Z,53.03
2023-04-08T22:00:57.687Z,58.38
2023-04-08T22:03:26.670Z,58.65
2023-04-08T22:05:55.377Z,56.80
2023-04-08T22:08:25.059Z,59.45
2023-04-08T22:10:54.189Z,60.55
2023-04-08T22:13:22.393Z,61.50
2023-04-08T22:15:51.056Z,60.00
2023-04-08T22:18:19.271Z,56.47
2023-04-08T22:20:48.026Z,57.38
2023-04-08T22:23:16.238Z,50.15
2023-04-08T22:25:49.498Z,47.00
2023-04-08T22:28:17.810Z,49.17
2023-04-08T22:30:46.418Z,47.17
2023-04-08T22:33:14.641Z,43.55
2023-04-08T22:35:43.520Z,42.30
2023-04-08T22:38:11.911Z,41.80
2023-04-08T22:40:40.446Z,42.92
2023-04-08T22:43:10.098Z,37.63
2023-04-08T22:45:38.869Z,37.10
2023-04-08T22:48:07.568Z,40.45
2023-04-08T22:50:36.240Z,40.70
2023-04-08T22:53:04.704Z,40.17
2023-04-08T22:55:33.447Z,39.35
2023-04-08T22:58:01.745Z,36.53
2023-04-08T23:00:31.931Z,38.53
2023-04-08T23:03:04.631Z,35.50
2023-04-08T23:05:33.300Z,37.22
2023-04-08T23:08:01.588Z,35.25
2023-04-08T23:10:30.096Z,30.88
2023-04-08T23:12:58.416Z,34.72
2023-04-08T23:15:27.015Z,30.65
2023-04-08T23:17:56.734Z,34.42
2023-04-08T23:20:25.146Z,36.85
2023-04-08T23:22:53.514Z,33.30
2023-04-08T23:25:21.947Z,34.67
2023-04-08T23:27:50.197Z,32.15
2023-04-08T23:30:18.767Z,31.35
2023-04-08T23:32:47.120Z,30.77
2023-04-08T23:35:17.377Z,30.60
2023-04-08T23:37:45.767Z,31.17
2023-04-08T23:40:14.281Z,26.73
2023-04-08T23:42:42.542Z,27.15
2023-04-08T23:45:11.849Z,28.85
2023-04-08T23:47:40.155Z,28.33
2023-04-08T23:50:10.136Z,28.00
2023-04-08T23:52:39.657Z,27.40
2023-04-08T23:55:08.612Z,27.30
2023-04-08T23:57:37.033Z,23.90
